Time;durP1;ratioP1;P1;durP2;ratioP2;P2;SDS_P1;SDS_P2;PMS_P1;PMS_P2;Temp;Humidity;BMP_temperature;BMP_pressure;BME280_temperature;BME280_humidity;BME280_pressure;Samples;Min_cycle;Max_cycle;Signal;HPM_P1;HPM_P2
2023/10/09 00:03:09;;;;;;;10.75;9.70;;;21.40;96.70;;;;;;5017271;28;20060;-86
2023/10/09 00:05:45;;;;;;;11.13;10.02;;;21.40;96.70;;;;;;5009186;28;20050;-84
2023/10/09 00:08:30;;;;;;;13.65;11.30;;;21.40;96.70;;;;;;5004550;28;20516;-86
2023/10/09 00:11:16;;;;;;;11.13;9.52;;;21.40;96.70;;;;;;4998482;28;20046;-86
2023/10/09 00:13:49;;;;;;;15.32;12.10;;;21.30;96.70;;;;;;5001098;28;20113;-88
2023/10/09 00:16:47;;;;;;;13.55;12.00;;;21.40;96.70;;;;;;5009633;28;20112;-84
2023/10/09 00:21:50;;;;;;;13.38;11.90;;;21.20;96.70;;;;;;5015343;28;20148;-86
2023/10/09 00:24:25;;;;;;;15.05;11.82;;;21.20;96.70;;;;;;5005979;28;20050;-85
2023/10/09 00:27:01;;;;;;;14.63;11.93;;;21.20;96.70;;;;;;4991740;28;20104;-84
2023/10/09 00:29:35;;;;;;;13.63;12.20;;;21.20;96.70;;;;;;5005616;28;20887;-87
2023/10/09 00:32:13;;;;;;;14.18;12.68;;;21.10;96.70;;;;;;5007722;28;20087;-86
2023/10/09 00:34:43;;;;;;;12.73;11.52;;;21.10;96.70;;;;;;4991116;28;20069;-87
2023/10/09 00:37:22;;;;;;;13.50;12.10;;;21.00;96.70;;;;;;4998889;28;20038;-86
2023/10/09 00:39:58;;;;;;;14.10;12.70;;;21.00;96.70;;;;;;5000977;28;20054;-87
2023/10/09 00:42:36;;;;;;;16.20;12.73;;;21.00;96.70;;;;;;5022111;28;20151;-85
2023/10/09 00:45:16;;;;;;;15.48;13.00;;;21.00;96.70;;;;;;4992207;28;20053;-84
2023/10/09 00:47:48;;;;;;;13.93;12.40;;;21.00;96.70;;;;;;5020004;28;20292;-87
2023/10/09 00:53:01;;;;;;;15.82;12.60;;;20.80;96.70;;;;;;5011132;28;20130;-87
2023/10/09 00:58:23;;;;;;;17.00;13.82;;;20.70;96.70;;;;;;4994591;28;20056;-86
2023/10/09 01:00:53;;;;;;;14.98;13.15;;;20.70;96.70;;;;;;5004475;28;20061;-88
2023/10/09 01:03:24;;;;;;;15.07;13.57;;;20.60;96.70;;;;;;5016769;28;20054;-87
2023/10/09 01:11:29;;;;;;;20.83;13.57;;;20.60;96.70;;;;;;5009029;28;20064;-85
2023/10/09 01:16:41;;;;;;;15.10;13.50;;;20.50;96.70;;;;;;5006893;28;20046;-84
2023/10/09 01:19:23;;;;;;;14.63;12.90;;;20.60;96.70;;;;;;5007689;28;20500;-87
2023/10/09 01:21:54;;;;;;;14.35;12.50;;;20.60;96.70;;;;;;5008925;28;20045;-85
2023/10/09 01:24:26;;;;;;;14.10;12.60;;;20.50;96.70;;;;;;5006442;28;20054;-85
2023/10/09 01:26:59;;;;;;;13.63;12.30;;;20.50;96.70;;;;;;5009444;28;20101;-85
2023/10/09 01:29:29;;;;;;;13.35;11.82;;;20.50;96.70;;;;;;5007196;28;20057;-85
2023/10/09 01:32:02;;;;;;;13.77;12.32;;;20.50;96.70;;;;;;4999767;28;20503;-82
2023/10/09 01:37:22;;;;;;;13.32;12.00;;;20.60;96.70;;;;;;5008790;28;20042;-86
2023/10/09 01:39:57;;;;;;;12.23;10.57;;;20.70;96.70;;;;;;4998071;28;20153;-82
2023/10/09 01:42:34;;;;;;;13.43;11.25;;;20.70;96.70;;;;;;5008424;28;20156;-84
2023/10/09 01:45:42;;;;;;;12.32;11.05;;;20.70;96.70;;;;;;5015922;28;20541;-83
2023/10/09 01:48:05;;;;;;;13.23;11.90;;;20.90;96.70;;;;;;4999085;28;20057;-85
2023/10/09 01:50:41;;;;;;;14.88;12.20;;;20.80;96.70;;;;;;5003117;28;20042;-84
2023/10/09 01:53:17;;;;;;;13.40;11.77;;;20.70;96.70;;;;;;4984183;28;20049;-85
2023/10/09 01:55:49;;;;;;;13.93;12.45;;;20.70;96.70;;;;;;5008587;28;20050;-84
2023/10/09 02:00:55;;;;;;;14.75;12.68;;;20.70;96.70;;;;;;5006194;28;20104;-83
2023/10/09 02:03:29;;;;;;;14.45;12.73;;;20.80;96.70;;;;;;5001946;28;20057;-84
2023/10/09 02:06:00;;;;;;;14.00;12.57;;;20.90;96.70;;;;;;4985184;28;20101;-85
2023/10/09 02:08:35;;;;;;;14.65;12.52;;;20.90;96.70;;;;;;5011569;28;20029;-84
2023/10/09 02:11:14;;;;;;;14.00;12.43;;;20.90;96.70;;;;;;5004209;28;20074;-84
2023/10/09 02:13:47;;;;;;;14.15;12.10;;;20.80;96.70;;;;;;5009696;28;20078;-84
2023/10/09 02:16:28;;;;;;;14.73;12.35;;;21.00;96.70;;;;;;4999656;28;20148;-85
2023/10/09 02:18:58;;;;;;;14.18;12.05;;;20.90;96.70;;;;;;4992702;28;20073;-84
2023/10/09 02:21:34;;;;;;;16.50;12.65;;;20.90;96.70;;;;;;5009861;28;20050;-84
2023/10/09 02:24:09;;;;;;;14.93;12.95;;;21.00;96.70;;;;;;5003186;28;20144;-84
2023/10/09 02:29:17;;;;;;;14.90;13.32;;;21.00;96.70;;;;;;5003704;28;20117;-84
2023/10/09 02:31:51;;;;;;;15.52;13.30;;;20.90;96.70;;;;;;4991494;28;20046;-83
2023/10/09 02:34:25;;;;;;;16.88;12.95;;;21.00;96.70;;;;;;5009603;28;20069;-84
2023/10/09 02:37:05;;;;;;;14.73;13.15;;;20.90;96.70;;;;;;5006736;28;20136;-83
2023/10/09 02:39:47;;;;;;;14.80;12.25;;;20.90;96.70;;;;;;5008797;28;20045;-82
2023/10/09 02:42:32;;;;;;;15.48;13.10;;;20.90;96.70;;;;;;5000423;28;20060;-81
2023/10/09 02:45:03;;;;;;;15.50;13.15;;;21.00;96.70;;;;;;5010824;28;20053;-85
2023/10/09 02:47:39;;;;;;;14.43;12.13;;;21.00;96.70;;;;;;5027470;28;20092;-86
2023/10/09 02:50:10;;;;;;;16.27;12.68;;;21.00;96.70;;;;;;4989696;28;20054;-86
2023/10/09 02:52:41;;;;;;;13.40;11.57;;;21.00;96.70;;;;;;5009131;28;20046;-86
2023/10/09 02:55:25;;;;;;;14.27;12.77;;;21.00;96.70;;;;;;5001548;28;20061;-86
2023/10/09 02:58:07;;;;;;;14.13;12.38;;;21.00;96.70;;;;;;4988374;28;20053;-84
2023/10/09 03:00:38;;;;;;;13.18;11.73;;;21.00;96.70;;;;;;5008927;28;20054;-85
2023/10/09 03:03:08;;;;;;;16.30;13.13;;;21.00;96.70;;;;;;4999005;28;20076;-85
2023/10/09 03:05:42;;;;;;;14.25;12.32;;;21.00;96.70;;;;;;4990306;28;20038;-84
2023/10/09 03:08:20;;;;;;;14.93;13.27;;;21.00;96.70;;;;;;5011333;28;20042;-85
2023/10/09 03:10:49;;;;;;;15.20;12.98;;;21.00;96.70;;;;;;5006936;28;20049;-85
2023/10/09 03:13:21;;;;;;;14.95;13.30;;;20.90;96.70;;;;;;5010791;28;20034;-85
2023/10/09 03:15:53;;;;;;;14.48;12.77;;;20.90;96.70;;;;;;5011857;28;20057;-85
2023/10/09 03:18:30;;;;;;;14.95;12.63;;;21.00;96.70;;;;;;5005429;28;20052;-78
2023/10/09 03:21:00;;;;;;;15.05;13.52;;;21.00;96.70;;;;;;5003375;28;20180;-77
2023/10/09 03:23:29;;;;;;;16.52;13.40;;;21.00;96.70;;;;;;5010556;28;20052;-78
2023/10/09 03:25:59;;;;;;;17.15;13.50;;;21.10;96.70;;;;;;4988644;28;20140;-78
2023/10/09 03:28:50;;;;;;;14.27;12.88;;;21.10;96.70;;;;;;5005039;28;20069;-76
2023/10/09 03:31:21;;;;;;;17.30;13.50;;;21.20;96.70;;;;;;5013966;28;20049;-78
2023/10/09 03:33:51;;;;;;;14.77;13.27;;;21.20;96.70;;;;;;5016846;28;20534;-78
2023/10/09 03:36:21;;;;;;;16.70;13.68;;;21.20;96.70;;;;;;5004718;28;20140;-78
2023/10/09 03:38:54;;;;;;;15.25;13.60;;;21.20;96.70;;;;;;5011334;28;20042;-78
2023/10/09 03:41:29;;;;;;;15.43;13.82;;;21.10;96.70;;;;;;5004057;28;20124;-78
2023/10/09 03:44:01;;;;;;;15.05;13.45;;;20.90;96.70;;;;;;5016848;28;20086;-77
2023/10/09 03:46:36;;;;;;;18.15;13.63;;;20.80;96.70;;;;;;5017417;28;20057;-78
2023/10/09 03:49:10;;;;;;;16.60;13.80;;;20.80;96.70;;;;;;5013615;28;20038;-78
2023/10/09 03:51:42;;;;;;;14.38;12.88;;;20.80;96.70;;;;;;5014776;28;20046;-78
2023/10/09 03:54:13;;;;;;;15.73;12.93;;;20.60;96.70;;;;;;4996625;28;20068;-79
2023/10/09 03:56:44;;;;;;;15.68;13.55;;;20.60;96.70;;;;;;5014007;28;20089;-77
2023/10/09 03:59:16;;;;;;;17.35;13.75;;;20.60;96.70;;;;;;5004308;28;20448;-78
2023/10/09 04:01:46;;;;;;;16.67;14.88;;;20.60;96.70;;;;;;5012633;28;20411;-78
2023/10/09 04:04:17;;;;;;;14.80;13.30;;;20.60;96.70;;;;;;5010501;28;20053;-79
2023/10/09 04:06:48;;;;;;;19.17;14.88;;;20.60;96.70;;;;;;5014486;28;20048;-79
2023/10/09 04:12:12;;;;;;;17.63;13.90;;;20.30;96.70;;;;;;5017469;28;20034;-78
2023/10/09 04:17:33;;;;;;;23.23;17.02;;;20.40;96.70;;;;;;5008124;28;20046;-78
2023/10/09 04:22:50;;;;;;;24.52;17.95;;;20.50;96.70;;;;;;5003645;28;20046;-78
2023/10/09 04:25:29;;;;;;;23.42;18.50;;;20.60;96.70;;;;;;5003010;28;20053;-79
2023/10/09 04:28:09;;;;;;;28.92;22.25;;;20.60;96.70;;;;;;4997149;28;20112;-78
2023/10/09 04:30:42;;;;;;;30.25;23.13;;;20.60;96.70;;;;;;5018748;28;20042;-78
2023/10/09 04:44:29;;;;;;;40.35;23.65;;;20.60;96.70;;;;;;5014522;28;20057;-78
2023/10/09 04:57:45;;;;;;;42.45;23.65;;;20.50;96.70;;;;;;5011483;28;20037;-79
2023/10/09 05:03:04;;;;;;;49.83;26.02;;;20.50;96.70;;;;;;5004001;28;20124;-79
2023/10/09 05:08:19;;;;;;;43.90;24.15;;;20.50;96.70;;;;;;5008102;28;20053;-79
2023/10/09 05:16:33;;;;;;;47.55;25.63;;;20.50;96.70;;;;;;5011237;28;20056;-79
2023/10/09 05:19:07;;;;;;;44.15;24.60;;;20.50;96.70;;;;;;5006495;28;21008;-79
2023/10/09 05:37:25;;;;;;;45.80;23.60;;;20.60;96.70;;;;;;5012424;28;20045;-80
2023/10/09 06:04:12;;;;;;;39.60;23.10;;;20.70;96.70;;;;;;5004050;28;20096;-79
2023/10/09 06:06:44;;;;;;;37.75;22.88;;;20.70;96.70;;;;;;5005898;28;20419;-79
2023/10/09 06:14:49;;;;;;;36.25;20.75;;;20.70;96.70;;;;;;5013404;28;20045;-80
2023/10/09 06:17:27;;;;;;;;;;;20.80;96.70;;;;;;5010650;28;20104;-79
2023/10/09 06:20:39;;;;;;;29.27;20.23;;;20.80;96.70;;;;;;5018470;28;19925;-79
2023/10/09 06:22:56;;;;;;;28.33;18.60;;;20.80;96.70;;;;;;5007301;28;20053;-79
2023/10/09 06:25:32;;;;;;;32.58;19.10;;;20.80;96.70;;;;;;5003363;28;20057;-79
2023/10/09 06:28:02;;;;;;;27.40;19.10;;;20.80;96.70;;;;;;5022686;28;20585;-79
2023/10/09 06:30:35;;;;;;;27.17;18.17;;;20.90;96.70;;;;;;5012385;28;20503;-79
2023/10/09 06:33:29;;;;;;;24.98;18.10;;;20.90;96.70;;;;;;5018104;28;20085;-79
2023/10/09 06:36:08;;;;;;;30.27;19.15;;;21.00;96.70;;;;;;5013371;28;20049;-79
2023/10/09 06:39:50;;;;;;;31.40;20.13;;;21.00;96.70;;;;;;5011178;28;20041;-79
2023/10/09 06:41:45;;;;;;;29.43;19.07;;;21.10;96.70;;;;;;5004857;28;20484;-79
2023/10/09 06:44:52;;;;;;;32.10;19.63;;;21.10;96.70;;;;;;5017837;28;20051;-78
2023/10/09 06:47:08;;;;;;;27.60;19.27;;;21.20;96.70;;;;;;5024573;28;20049;-79
2023/10/09 06:49:37;;;;;;;30.02;19.95;;;21.20;96.70;;;;;;5006314;28;20050;-79
2023/10/09 06:52:15;;;;;;;32.97;20.10;;;21.30;96.70;;;;;;5009136;28;20045;-80
2023/10/09 06:54:49;;;;;;;28.75;17.58;;;21.30;96.70;;;;;;5007584;28;20060;-81
2023/10/09 06:57:43;;;;;;;25.02;16.55;;;21.40;96.70;;;;;;4990281;28;20084;-82
2023/10/09 07:00:54;;;;;;;26.65;18.40;;;21.50;96.70;;;;;;5001957;28;20065;-81
2023/10/09 07:03:11;;;;;;;25.33;16.58;;;21.50;96.70;;;;;;5011143;28;20137;-82
2023/10/09 07:08:37;;;;;;;30.13;19.10;;;21.60;96.70;;;;;;5003671;28;20156;-79
2023/10/09 07:11:22;;;;;;;28.65;18.48;;;21.70;96.70;;;;;;5006556;28;20038;-79
2023/10/09 07:13:55;;;;;;;28.77;17.15;;;21.70;96.70;;;;;;5002763;28;20076;-79
2023/10/09 07:16:38;;;;;;;26.10;18.00;;;21.80;96.70;;;;;;5015373;28;20516;-79
2023/10/09 07:22:02;;;;;;;26.02;17.85;;;21.90;96.70;;;;;;5014290;28;20041;-79
2023/10/09 07:24:49;;;;;;;25.25;17.45;;;22.00;96.70;;;;;;5017180;28;20053;-80
2023/10/09 07:27:43;;;;;;;24.30;16.92;;;22.10;96.70;;;;;;5014091;28;20077;-80
2023/10/09 07:38:23;;;;;;;22.58;16.25;;;22.40;96.70;;;;;;5020245;28;20052;-79
2023/10/09 07:40:55;;;;;;;22.13;15.40;;;22.40;96.70;;;;;;5001213;28;20587;-79
2023/10/09 07:43:45;;;;;;;20.48;15.68;;;22.50;96.70;;;;;;5014224;28;20069;-79
2023/10/09 07:46:32;;;;;;;20.67;16.00;;;22.50;96.70;;;;;;5013794;28;20120;-79
2023/10/09 07:49:25;;;;;;;24.67;17.17;;;22.50;96.70;;;;;;5013781;28;20196;-79
2023/10/09 07:51:52;;;;;;;23.95;16.70;;;22.60;96.70;;;;;;5003477;28;20047;-81
2023/10/09 07:54:49;;;;;;;21.77;15.95;;;22.50;96.70;;;;;;5009576;28;20058;-80
2023/10/09 07:57:28;;;;;;;20.38;15.95;;;22.60;96.70;;;;;;5003384;28;20108;-80
2023/10/09 08:00:11;;;;;;;22.33;16.08;;;22.70;96.70;;;;;;5007133;28;20054;-79
2023/10/09 08:02:41;;;;;;;22.98;16.05;;;22.70;96.70;;;;;;4996149;28;20056;-79
2023/10/09 08:05:22;;;;;;;22.23;15.43;;;22.80;96.70;;;;;;5004258;28;20556;-79
2023/10/09 08:08:38;;;;;;;16.13;14.20;;;22.90;96.70;;;;;;5003126;28;20056;-76
2023/10/09 08:14:02;;;;;;;17.95;13.82;;;22.90;96.70;;;;;;5023687;28;20385;-76
2023/10/09 08:16:37;;;;;;;17.17;13.20;;;22.90;96.70;;;;;;5016518;28;20042;-76
2023/10/09 08:24:59;;;;;;;16.52;12.75;;;23.10;96.70;;;;;;4997857;28;20054;-75
2023/10/09 08:27:54;;;;;;;;;;;23.20;96.70;;;;;;5018888;28;20044;-76
2023/10/09 08:30:28;;;;;;;14.30;12.57;;;23.30;96.70;;;;;;5015263;28;19956;-79
2023/10/09 08:33:40;;;;;;;14.90;12.65;;;23.40;96.70;;;;;;5008040;28;21021;-77
2023/10/09 08:36:05;;;;;;;15.13;12.65;;;23.40;96.70;;;;;;5008893;28;20436;-77
2023/10/09 08:38:42;;;;;;;14.60;12.32;;;23.40;96.70;;;;;;5003938;28;20063;-80
2023/10/09 08:41:18;;;;;;;17.88;13.80;;;23.40;96.70;;;;;;5003705;28;20073;-79
2023/10/09 08:43:55;;;;;;;14.90;12.60;;;23.60;96.70;;;;;;5009847;28;20042;-79
2023/10/09 08:46:27;;;;;;;15.23;13.48;;;23.70;96.70;;;;;;4996476;28;20050;-76
2023/10/09 08:49:00;;;;;;;21.48;14.95;;;23.80;96.70;;;;;;5018678;28;20046;-77
2023/10/09 08:51:35;;;;;;;18.17;13.98;;;24.00;96.70;;;;;;4999385;28;20128;-75
2023/10/09 08:54:11;;;;;;;18.08;13.73;;;24.10;96.70;;;;;;5329683;22;20065;-82
2023/10/09 08:56:49;;;;;;;19.58;13.45;;;24.20;96.70;;;;;;5030329;28;20045;-83
2023/10/09 08:59:18;;;;;;;15.48;12.18;;;24.20;96.70;;;;;;5025426;28;20393;-84
2023/10/09 09:01:52;;;;;;;15.20;12.13;;;24.20;96.70;;;;;;5035611;28;20068;-84
2023/10/09 09:04:38;;;;;;;14.68;12.43;;;24.30;96.70;;;;;;5028325;28;20052;-81
2023/10/09 09:07:24;;;;;;;15.85;13.20;;;24.30;96.70;;;;;;5011087;28;20041;-82
2023/10/09 09:09:57;;;;;;;17.25;14.00;;;24.30;96.70;;;;;;5014891;28;20467;-83
2023/10/09 09:12:30;;;;;;;18.88;15.05;;;24.30;96.70;;;;;;5026488;28;20769;-83
2023/10/09 09:14:58;;;;;;;19.42;14.68;;;24.30;96.70;;;;;;5027113;28;20049;-84
2023/10/09 09:17:33;;;;;;;17.00;13.45;;;24.20;96.70;;;;;;5021764;28;20479;-84
2023/10/09 09:20:23;;;;;;;14.20;12.52;;;24.30;96.70;;;;;;5017668;28;20049;-85
2023/10/09 09:22:56;;;;;;;16.10;12.63;;;24.40;96.70;;;;;;5028590;28;20100;-85
2023/10/09 09:25:39;;;;;;;14.65;12.60;;;24.40;96.70;;;;;;5025643;28;20136;-82
2023/10/09 09:28:12;;;;;;;14.38;12.63;;;24.50;96.70;;;;;;5026773;28;20046;-82
2023/10/09 09:30:41;;;;;;;16.70;13.25;;;24.50;96.70;;;;;;5019677;28;20052;-82
2023/10/09 09:34:04;;;;;;;14.93;12.35;;;24.30;96.70;;;;;;5025397;28;20083;-82
2023/10/09 09:36:23;;;;;;;18.40;13.80;;;24.30;96.70;;;;;;5015270;28;20060;-82
2023/10/09 09:39:01;;;;;;;15.68;12.77;;;24.40;96.70;;;;;;5020079;28;20038;-83
2023/10/09 09:41:33;;;;;;;14.85;12.00;;;24.50;96.70;;;;;;5025800;28;20045;-80
2023/10/09 09:44:01;;;;;;;14.88;12.40;;;24.60;96.70;;;;;;5026335;28;20445;-83
2023/10/09 09:46:36;;;;;;;16.50;12.18;;;24.60;96.70;;;;;;5026625;28;20045;-82
2023/10/09 09:49:07;;;;;;;18.43;14.30;;;24.60;96.70;;;;;;5018758;28;20049;-82
2023/10/09 09:51:36;;;;;;;16.13;12.77;;;24.70;96.70;;;;;;5025918;28;20316;-83
2023/10/09 09:54:10;;;;;;;17.33;13.05;;;24.80;96.70;;;;;;5027081;28;20107;-82
2023/10/09 09:56:40;;;;;;;16.08;12.85;;;24.80;96.70;;;;;;5027652;28;20046;-83
2023/10/09 09:59:21;;;;;;;14.20;11.77;;;24.70;96.70;;;;;;5020764;28;20053;-84
2023/10/09 10:02:06;;;;;;;13.23;10.93;;;24.90;96.70;;;;;;5030205;28;20037;-80
2023/10/09 10:04:38;;;;;;;14.23;11.38;;;25.10;96.70;;;;;;5035669;28;20053;-81
2023/10/09 10:07:12;;;;;;;16.45;11.70;;;25.40;96.70;;;;;;5024684;28;20053;-80
2023/10/09 10:09:48;;;;;;;15.02;11.55;;;25.50;96.70;;;;;;5039713;28;20461;-80
2023/10/09 10:13:14;;;;;;;13.68;11.85;;;25.60;96.70;;;;;;5033812;28;20552;-80
2023/10/09 10:16:08;;;;;;;15.30;12.13;;;25.50;96.70;;;;;;5037484;28;20095;-80
2023/10/09 10:19:07;;;;;;;14.25;12.20;;;25.60;96.70;;;;;;5024860;28;20045;-82
2023/10/09 10:21:41;;;;;;;15.60;11.68;;;25.40;96.70;;;;;;5031202;28;20049;-85
2023/10/09 10:24:51;;;;;;;13.25;11.35;;;25.40;96.70;;;;;;5036678;28;21190;-84
2023/10/09 10:27:24;;;;;;;14.73;11.23;;;25.40;96.70;;;;;;5036712;28;20395;-86
2023/10/09 10:30:31;;;;;;;15.98;12.40;;;25.60;96.70;;;;;;5028496;28;20053;-83
2023/10/09 10:33:09;;;;;;;15.70;13.03;;;25.70;96.70;;;;;;5031420;28;20045;-81
2023/10/09 10:38:34;;;;;;;16.13;11.85;;;25.80;96.70;;;;;;5029853;28;20049;-84
2023/10/09 10:41:17;;;;;;;14.98;12.15;;;25.70;96.70;;;;;;5020602;28;20087;-86
2023/10/09 10:46:30;;;;;;;13.93;11.75;;;25.70;96.70;;;;;;5030900;28;20045;-84
2023/10/09 10:49:10;;;;;;;16.25;12.90;;;25.90;96.70;;;;;;5038479;28;20049;-84
2023/10/09 10:51:39;;;;;;;15.50;12.75;;;26.00;96.70;;;;;;5029120;28;20053;-84
2023/10/09 10:56:57;;;;;;;15.70;11.90;;;26.20;96.70;;;;;;5038800;28;20087;-86
2023/10/09 10:59:36;;;;;;;12.60;10.98;;;26.20;96.70;;;;;;5022708;28;20091;-86
2023/10/09 11:04:41;;;;;;;15.52;11.90;;;26.60;96.70;;;;;;5039306;28;20056;-86
2023/10/09 11:07:12;;;;;;;14.10;11.40;;;26.60;96.70;;;;;;5029225;28;20054;-86
2023/10/09 11:10:00;;;;;;;14.77;12.20;;;26.60;96.70;;;;;;5024782;28;20387;-84
2023/10/09 11:12:44;;;;;;;13.98;12.07;;;26.60;96.70;;;;;;5039842;28;20620;-87
2023/10/09 11:17:58;;;;;;;12.75;11.43;;;26.70;96.70;;;;;;5029383;28;20049;-85
2023/10/09 11:20:32;;;;;;;12.82;11.45;;;26.80;96.70;;;;;;5045587;28;20049;-86
2023/10/09 11:25:50;;;;;;;16.15;11.82;;;26.90;96.70;;;;;;5034000;28;20387;-86
2023/10/09 11:28:29;;;;;;;16.85;11.40;;;26.90;96.70;;;;;;5031847;28;20125;-86
2023/10/09 11:31:07;;;;;;;13.50;10.80;;;26.90;96.70;;;;;;5012989;28;20673;-86
2023/10/09 11:33:45;;;;;;;13.82;11.77;;;27.00;96.70;;;;;;5028784;28;20121;-85
2023/10/09 11:36:13;;;;;;;14.52;10.20;;;27.10;96.70;;;;;;5030280;28;20045;-87
2023/10/09 11:38:45;;;;;;;14.00;11.48;;;27.20;96.70;;;;;;5029284;28;20128;-86
2023/10/09 11:41:19;;;;;;;12.25;10.45;;;27.20;96.70;;;;;;5011041;28;20176;-86
2023/10/09 11:43:52;;;;;;;12.65;10.82;;;27.30;96.70;;;;;;5008789;28;20107;-86
2023/10/09 11:46:37;;;;;;;11.55;10.38;;;27.40;96.70;;;;;;5034669;28;20081;-86
2023/10/09 11:54:35;;;;;;;15.20;9.82;;;27.70;96.70;;;;;;5029291;28;20546;-87
2023/10/09 11:57:03;;;;;;;13.43;9.80;;;27.80;96.70;;;;;;5029173;28;20052;-85
2023/10/09 11:59:37;;;;;;;15.38;10.70;;;27.80;96.70;;;;;;5029774;28;20069;-85
2023/10/09 12:02:11;;;;;;;9.93;8.88;;;27.90;96.70;;;;;;5036287;28;20069;-87
2023/10/09 12:04:42;;;;;;;10.90;9.85;;;28.00;96.70;;;;;;5028769;28;20043;-86
2023/10/09 12:07:13;;;;;;;11.45;9.32;;;28.10;96.70;;;;;;5020058;28;20072;-84
2023/10/09 12:09:41;;;;;;;10.98;9.57;;;28.10;96.70;;;;;;5025004;28;20053;-87
2023/10/09 12:12:09;;;;;;;10.27;8.30;;;28.20;96.70;;;;;;5026950;28;20495;-87
2023/10/09 12:14:39;;;;;;;8.57;7.68;;;28.30;96.70;;;;;;5038002;28;20051;-86
2023/10/09 12:17:08;;;;;;;9.98;7.65;;;28.30;96.70;;;;;;5027917;28;20053;-86
2023/10/09 12:19:39;;;;;;;13.35;7.68;;;28.50;96.70;;;;;;5033891;28;20041;-86
2023/10/09 12:22:16;;;;;;;9.88;7.32;;;28.50;96.70;;;;;;5010386;28;20045;-82
2023/10/09 12:24:45;;;;;;;9.88;6.82;;;28.60;96.70;;;;;;5025746;28;20042;-85
2023/10/09 12:27:13;;;;;;;10.80;7.20;;;28.70;96.70;;;;;;5029143;28;20053;-84
2023/10/09 12:29:44;;;;;;;9.07;7.18;;;28.90;96.70;;;;;;5028471;28;20068;-86
2023/10/09 12:32:20;;;;;;;8.05;6.97;;;29.10;96.70;;;;;;5018937;28;20057;-85
2023/10/09 12:34:50;;;;;;;9.52;6.95;;;29.00;96.70;;;;;;5026061;28;20124;-83
2023/10/09 12:37:20;;;;;;;7.40;6.28;;;29.00;96.70;;;;;;5020537;28;20387;-86
2023/10/09 12:39:50;;;;;;;9.73;6.40;;;29.10;96.70;;;;;;5027619;28;20052;-85
2023/10/09 12:42:18;;;;;;;7.78;5.55;;;29.20;96.70;;;;;;5026998;28;20120;-85
2023/10/09 12:44:49;;;;;;;9.00;5.30;;;29.30;96.70;;;;;;5036573;28;20144;-85
2023/10/09 12:47:18;;;;;;;8.38;5.35;;;29.20;96.70;;;;;;5026332;28;20421;-86
2023/10/09 12:49:48;;;;;;;8.85;5.13;;;29.10;96.70;;;;;;5032369;28;20502;-82
2023/10/09 12:52:16;;;;;;;7.70;5.43;;;29.20;96.70;;;;;;5026357;28;20052;-83
2023/10/09 12:54:47;;;;;;;7.55;5.07;;;29.20;96.70;;;;;;5027628;28;20053;-85
2023/10/09 12:57:15;;;;;;;7.55;5.05;;;29.20;96.70;;;;;;5027739;28;20388;-84
2023/10/09 12:59:45;;;;;;;5.93;5.28;;;29.20;96.70;;;;;;5023777;28;20038;-84
2023/10/09 13:02:39;;;;;;;6.97;4.97;;;29.30;96.70;;;;;;5029398;28;20045;-87
2023/10/09 13:05:05;;;;;;;11.80;5.22;;;29.20;96.70;;;;;;5035385;28;20049;-85
2023/10/09 13:07:33;;;;;;;7.85;5.40;;;29.20;96.70;;;;;;5017527;28;20148;-82
2023/10/09 13:10:13;;;;;;;7.60;4.85;;;29.20;96.70;;;;;;5028065;28;20064;-81
2023/10/09 13:12:41;;;;;;;5.90;4.80;;;29.20;96.70;;;;;;5029946;28;20076;-82
2023/10/09 13:15:10;;;;;;;8.45;4.78;;;29.20;96.70;;;;;;5020973;28;20065;-83
2023/10/09 13:17:41;;;;;;;7.95;4.90;;;29.20;96.70;;;;;;5024195;28;20455;-80
2023/10/09 13:20:12;;;;;;;7.60;5.07;;;29.20;96.70;;;;;;5042302;28;20671;-81
2023/10/09 13:22:41;;;;;;;7.93;5.00;;;29.00;96.70;;;;;;5037641;28;20046;-81
2023/10/09 13:25:24;;;;;;;10.40;4.90;;;29.00;96.70;;;;;;5026057;28;20129;-81
2023/10/09 13:28:03;;;;;;;14.38;5.07;;;29.00;96.70;;;;;;5029105;28;20080;-83
2023/10/09 13:30:39;;;;;;;9.63;4.75;;;28.90;96.70;;;;;;5024898;28;20073;-83
2023/10/09 13:33:16;;;;;;;9.05;4.88;;;28.90;96.70;;;;;;5020402;28;20072;-84
2023/10/09 13:35:50;;;;;;;7.30;4.93;;;28.80;96.70;;;;;;5026394;28;20037;-83
2023/10/09 13:38:18;;;;;;;14.05;5.38;;;28.80;96.70;;;;;;5031031;28;20042;-82
2023/10/09 13:40:46;;;;;;;7.25;4.43;;;28.70;96.70;;;;;;5033311;28;20045;-80
2023/10/09 13:43:16;;;;;;;7.95;5.45;;;28.70;96.70;;;;;;5035588;28;20426;-81
2023/10/09 13:45:49;;;;;;;8.25;5.03;;;28.80;96.70;;;;;;5036936;28;20436;-81
2023/10/09 13:48:20;;;;;;;10.00;5.28;;;28.80;96.70;;;;;;5025541;28;20049;-82
2023/10/09 13:50:50;;;;;;;6.53;4.70;;;28.80;96.70;;;;;;5011684;28;20049;-82
2023/10/09 13:53:18;;;;;;;6.75;4.60;;;28.70;96.70;;;;;;5029688;28;20535;-83
2023/10/09 13:55:47;;;;;;;8.55;4.82;;;28.80;96.70;;;;;;5038500;28;20537;-82
2023/10/09 13:58:20;;;;;;;8.35;5.20;;;28.60;96.70;;;;;;5042915;28;20049;-82
2023/10/09 14:00:50;;;;;;;5.72;4.50;;;28.70;96.70;;;;;;5029195;28;20049;-83
2023/10/09 14:03:23;;;;;;;6.78;4.82;;;28.70;96.70;;;;;;5030359;28;20065;-84
2023/10/09 14:05:54;;;;;;;6.28;4.90;;;28.90;96.70;;;;;;5038316;28;20041;-83
2023/10/09 14:08:23;;;;;;;5.80;4.45;;;28.80;96.70;;;;;;5012836;28;20111;-83
2023/10/09 14:10:51;;;;;;;5.65;4.65;;;28.80;96.70;;;;;;5043126;28;20060;-82
2023/10/09 14:13:25;;;;;;;7.57;5.28;;;28.80;96.70;;;;;;5003059;28;20054;-82
2023/10/09 14:15:54;;;;;;;8.15;4.93;;;28.90;96.70;;;;;;5038588;28;20081;-82
2023/10/09 14:18:24;;;;;;;8.85;5.28;;;29.00;96.70;;;;;;5029775;28;20116;-82
2023/10/09 14:20:56;;;;;;;9.40;5.25;;;28.90;96.70;;;;;;5029120;28;20054;-82
2023/10/09 14:23:32;;;;;;;6.43;4.75;;;28.80;96.70;;;;;;5029547;28;20041;-82
2023/10/09 14:26:01;;;;;;;6.93;4.78;;;29.00;96.70;;;;;;5028661;28;20103;-82
2023/10/09 14:28:30;;;;;;;8.45;4.80;;;29.10;96.70;;;;;;5024197;28;20395;-84
2023/10/09 14:30:59;;;;;;;11.10;5.03;;;29.20;96.70;;;;;;5036866;28;20104;-81
2023/10/09 14:33:35;;;;;;;8.15;5.05;;;29.20;96.70;;;;;;5033547;28;20673;-83
2023/10/09 14:36:05;;;;;;;7.50;4.88;;;29.20;96.70;;;;;;5010764;28;20054;-82
2023/10/09 14:38:38;;;;;;;7.60;4.45;;;29.00;96.70;;;;;;5037045;28;20042;-83
2023/10/09 14:41:11;;;;;;;8.55;5.10;;;29.30;96.70;;;;;;5027421;28;20065;-83
2023/10/09 14:43:40;;;;;;;7.13;5.30;;;29.50;96.70;;;;;;5029413;28;20057;-84
2023/10/09 14:46:13;;;;;;;10.27;6.97;;;29.60;96.70;;;;;;5029083;28;20071;-82
2023/10/09 14:48:45;;;;;;;6.65;5.18;;;29.70;96.70;;;;;;5028485;28;20060;-84
2023/10/09 14:51:14;;;;;;;7.03;5.07;;;30.00;96.70;;;;;;5037069;28;20491;-83
2023/10/09 14:53:43;;;;;;;7.15;5.10;;;30.20;96.70;;;;;;5030562;28;20041;-83
2023/10/09 14:56:14;;;;;;;5.40;4.88;;;30.40;96.70;;;;;;5027769;28;20518;-82
2023/10/09 14:58:46;;;;;;;10.70;5.03;;;30.40;96.70;;;;;;5019873;28;20052;-83
2023/10/09 15:01:18;;;;;;;6.65;4.47;;;30.40;96.70;;;;;;5029522;28;20049;-84
2023/10/09 15:03:49;;;;;;;11.70;5.13;;;30.60;96.70;;;;;;5022360;28;20041;-83
2023/10/09 15:06:18;;;;;;;6.43;4.55;;;30.60;96.70;;;;;;5034710;28;20057;-83
2023/10/09 15:08:46;;;;;;;10.52;4.90;;;30.80;96.70;;;;;;5037572;28;20060;-82
2023/10/09 15:11:15;;;;;;;5.35;4.63;;;30.60;96.70;;;;;;5028037;28;20083;-82
2023/10/09 15:13:43;;;;;;;5.82;4.68;;;30.60;96.70;;;;;;5030000;28;20523;-83
2023/10/09 15:16:11;;;;;;;8.32;4.55;;;30.70;96.70;;;;;;5029241;28;20080;-83
2023/10/09 15:18:39;;;;;;;6.00;4.88;;;30.60;96.70;;;;;;5029429;28;20037;-83
2023/10/09 15:21:09;;;;;;;5.03;4.18;;;30.50;96.70;;;;;;5040480;28;20056;-82
2023/10/09 15:23:37;;;;;;;7.15;4.28;;;30.70;96.70;;;;;;5041122;28;20132;-83
2023/10/09 15:26:06;;;;;;;6.32;4.90;;;30.90;96.70;;;;;;5015365;28;20050;-83
2023/10/09 15:28:35;;;;;;;10.50;4.75;;;31.00;96.70;;;;;;5027589;28;20557;-82
2023/10/09 15:31:10;;;;;;;11.05;4.68;;;31.10;96.70;;;;;;5028007;28;20045;-83
2023/10/09 15:33:40;;;;;;;7.70;4.40;;;31.10;96.70;;;;;;5027546;28;20513;-82
2023/10/09 15:36:17;;;;;;;6.75;4.80;;;31.10;96.70;;;;;;5027302;28;20073;-84
2023/10/09 15:38:45;;;;;;;5.32;4.22;;;30.80;96.70;;;;;;5028992;28;20128;-83
2023/10/09 15:41:15;;;;;;;5.82;4.20;;;30.90;96.70;;;;;;5028386;28;20410;-82
2023/10/09 15:43:46;;;;;;;5.15;4.00;;;30.20;96.70;;;;;;5028726;28;20130;-83
2023/10/09 15:46:14;;;;;;;9.13;4.38;;;29.10;96.70;;;;;;5036307;28;20088;-83
2023/10/09 15:48:43;;;;;;;8.70;4.78;;;28.10;96.70;;;;;;5018945;28;20894;-83
2023/10/09 15:51:16;;;;;;;6.57;4.15;;;27.50;96.70;;;;;;5044583;28;20375;-83